sensor_id;sensor_type;location;lat;lon;timestamp;P1;durP1;ratioP1;P2;durP2;ratioP2
5945;SDS011;2998;48.206;16.394;2022-07-29T00:01:41;6.83;;;6.23;;
5945;SDS011;2998;48.206;16.394;2022-07-29T00:04:10;8.50;;;5.93;;
5945;SDS011;2998;48.206;16.394;2022-07-29T00:06:39;6.03;;;5.50;;
5945;SDS011;2998;48.206;16.394;2022-07-29T00:09:07;6.40;;;5.73;;
5945;SDS011;2998;48.206;16.394;2022-07-29T00:11:35;7.50;;;6.27;;
5945;SDS011;2998;48.206;16.394;2022-07-29T00:14:03;6.07;;;5.47;;
5945;SDS011;2998;48.206;16.394;2022-07-29T00:16:31;6.67;;;5.93;;
5945;SDS011;2998;48.206;16.394;2022-07-29T00:19:01;6.43;;;5.77;;
5945;SDS011;2998;48.206;16.394;2022-07-29T00:21:29;8.10;;;5.80;;
5945;SDS011;2998;48.206;16.394;2022-07-29T00:23:57;6.63;;;6.03;;
5945;SDS011;2998;48.206;16.394;2022-07-29T00:26:25;7.10;;;6.00;;
5945;SDS011;2998;48.206;16.394;2022-07-29T00:28:58;6.77;;;5.90;;
5945;SDS011;2998;48.206;16.394;2022-07-29T00:31:46;11.10;;;5.90;;
5945;SDS011;2998;48.206;16.394;2022-07-29T00:34:15;7.50;;;5.87;;
5945;SDS011;2998;48.206;16.394;2022-07-29T00:37:01;6.43;;;5.80;;
5945;SDS011;2998;48.206;16.394;2022-07-29T00:39:29;6.07;;;5.47;;
5945;SDS011;2998;48.206;16.394;2022-07-29T00:41:57;6.50;;;6.00;;
5945;SDS011;2998;48.206;16.394;2022-07-29T00:44:25;8.80;;;5.27;;
5945;SDS011;2998;48.206;16.394;2022-07-29T00:46:53;5.80;;;5.37;;
5945;SDS011;2998;48.206;16.394;2022-07-29T00:49:23;6.30;;;5.80;;
5945;SDS011;2998;48.206;16.394;2022-07-29T00:51:51;6.60;;;5.90;;
5945;SDS011;2998;48.206;16.394;2022-07-29T00:54:20;6.07;;;5.70;;
5945;SDS011;2998;48.206;16.394;2022-07-29T00:56:48;6.60;;;6.07;;
5945;SDS011;2998;48.206;16.394;2022-07-29T00:59:16;6.50;;;6.00;;
5945;SDS011;2998;48.206;16.394;2022-07-29T01:01:44;7.70;;;6.70;;
5945;SDS011;2998;48.206;16.394;2022-07-29T01:04:12;12.30;;;6.43;;
5945;SDS011;2998;48.206;16.394;2022-07-29T01:06:43;6.80;;;6.30;;
5945;SDS011;2998;48.206;16.394;2022-07-29T01:09:11;6.47;;;5.93;;
5945;SDS011;2998;48.206;16.394;2022-07-29T01:11:40;7.20;;;6.70;;
5945;SDS011;2998;48.206;16.394;2022-07-29T01:14:09;6.50;;;6.03;;
5945;SDS011;2998;48.206;16.394;2022-07-29T01:16:40;6.87;;;6.30;;
5945;SDS011;2998;48.206;16.394;2022-07-29T01:19:23;10.67;;;7.50;;
5945;SDS011;2998;48.206;16.394;2022-07-29T01:22:07;6.03;;;5.50;;
5945;SDS011;2998;48.206;16.394;2022-07-29T01:24:52;6.10;;;5.70;;
5945;SDS011;2998;48.206;16.394;2022-07-29T01:27:38;6.57;;;6.07;;
5945;SDS011;2998;48.206;16.394;2022-07-29T01:30:12;6.27;;;5.93;;
5945;SDS011;2998;48.206;16.394;2022-07-29T01:32:41;6.80;;;6.30;;
5945;SDS011;2998;48.206;16.394;2022-07-29T01:35:12;8.03;;;7.43;;
5945;SDS011;2998;48.206;16.394;2022-07-29T01:37:48;10.70;;;7.43;;
5945;SDS011;2998;48.206;16.394;2022-07-29T01:40:18;7.23;;;6.60;;
5945;SDS011;2998;48.206;16.394;2022-07-29T01:42:49;8.33;;;7.67;;
5945;SDS011;2998;48.206;16.394;2022-07-29T01:45:20;10.27;;;7.73;;
5945;SDS011;2998;48.206;16.394;2022-07-29T01:47:53;9.37;;;8.60;;
5945;SDS011;2998;48.206;16.394;2022-07-29T01:50:26;7.60;;;6.90;;
5945;SDS011;2998;48.206;16.394;2022-07-29T01:52:59;13.73;;;7.27;;
5945;SDS011;2998;48.206;16.394;2022-07-29T01:55:29;9.60;;;8.00;;
5945;SDS011;2998;48.206;16.394;2022-07-29T01:58:00;10.00;;;7.57;;
5945;SDS011;2998;48.206;16.394;2022-07-29T02:00:30;7.77;;;6.67;;
5945;SDS011;2998;48.206;16.394;2022-07-29T02:02:59;8.90;;;7.63;;
5945;SDS011;2998;48.206;16.394;2022-07-29T02:05:30;8.00;;;7.20;;
5945;SDS011;2998;48.206;16.394;2022-07-29T02:07:58;7.30;;;6.80;;
5945;SDS011;2998;48.206;16.394;2022-07-29T02:10:27;7.80;;;7.10;;
5945;SDS011;2998;48.206;16.394;2022-07-29T02:12:57;8.50;;;7.90;;
5945;SDS011;2998;48.206;16.394;2022-07-29T02:15:26;7.57;;;7.07;;
5945;SDS011;2998;48.206;16.394;2022-07-29T02:17:58;7.60;;;6.90;;
5945;SDS011;2998;48.206;16.394;2022-07-29T02:20:28;7.33;;;6.70;;
5945;SDS011;2998;48.206;16.394;2022-07-29T02:22:57;7.30;;;6.90;;
5945;SDS011;2998;48.206;16.394;2022-07-29T02:25:26;7.67;;;7.10;;
5945;SDS011;2998;48.206;16.394;2022-07-29T02:28:03;8.73;;;8.03;;
5945;SDS011;2998;48.206;16.394;2022-07-29T02:30:31;7.17;;;6.73;;
5945;SDS011;2998;48.206;16.394;2022-07-29T02:33:01;7.53;;;7.03;;
5945;SDS011;2998;48.206;16.394;2022-07-29T02:35:30;9.17;;;7.97;;
5945;SDS011;2998;48.206;16.394;2022-07-29T02:38:00;11.00;;;8.10;;
5945;SDS011;2998;48.206;16.394;2022-07-29T02:40:47;7.50;;;6.97;;
5945;SDS011;2998;48.206;16.394;2022-07-29T02:43:16;11.30;;;7.70;;
5945;SDS011;2998;48.206;16.394;2022-07-29T02:45:45;8.07;;;7.33;;
5945;SDS011;2998;48.206;16.394;2022-07-29T02:48:18;8.47;;;7.87;;
5945;SDS011;2998;48.206;16.394;2022-07-29T02:50:51;8.90;;;8.20;;
5945;SDS011;2998;48.206;16.394;2022-07-29T02:53:34;8.40;;;7.70;;
5945;SDS011;2998;48.206;16.394;2022-07-29T02:56:04;12.60;;;8.07;;
5945;SDS011;2998;48.206;16.394;2022-07-29T02:58:36;7.83;;;7.03;;
5945;SDS011;2998;48.206;16.394;2022-07-29T03:01:08;10.37;;;8.03;;
5945;SDS011;2998;48.206;16.394;2022-07-29T03:03:46;9.57;;;8.67;;
5945;SDS011;2998;48.206;16.394;2022-07-29T03:06:15;8.20;;;7.60;;
5945;SDS011;2998;48.206;16.394;2022-07-29T03:09:04;9.33;;;8.53;;
5945;SDS011;2998;48.206;16.394;2022-07-29T03:11:38;8.73;;;8.03;;
5945;SDS011;2998;48.206;16.394;2022-07-29T03:14:16;8.53;;;7.70;;
5945;SDS011;2998;48.206;16.394;2022-07-29T03:16:46;8.40;;;7.60;;
5945;SDS011;2998;48.206;16.394;2022-07-29T03:19:16;8.20;;;7.60;;
5945;SDS011;2998;48.206;16.394;2022-07-29T03:21:44;7.67;;;7.07;;
5945;SDS011;2998;48.206;16.394;2022-07-29T03:24:23;7.80;;;7.20;;
5945;SDS011;2998;48.206;16.394;2022-07-29T03:26:55;9.20;;;8.30;;
5945;SDS011;2998;48.206;16.394;2022-07-29T03:29:24;8.37;;;7.77;;
5945;SDS011;2998;48.206;16.394;2022-07-29T03:32:00;9.27;;;8.47;;
5945;SDS011;2998;48.206;16.394;2022-07-29T03:34:35;8.40;;;7.80;;
5945;SDS011;2998;48.206;16.394;2022-07-29T03:37:04;9.17;;;8.27;;
5945;SDS011;2998;48.206;16.394;2022-07-29T03:39:35;8.87;;;8.20;;
5945;SDS011;2998;48.206;16.394;2022-07-29T03:42:06;9.20;;;8.30;;
5945;SDS011;2998;48.206;16.394;2022-07-29T03:44:36;8.00;;;7.30;;
5945;SDS011;2998;48.206;16.394;2022-07-29T03:47:04;7.63;;;6.93;;
5945;SDS011;2998;48.206;16.394;2022-07-29T03:49:35;9.83;;;8.20;;
5945;SDS011;2998;48.206;16.394;2022-07-29T03:52:04;8.50;;;7.87;;
5945;SDS011;2998;48.206;16.394;2022-07-29T03:54:32;8.97;;;8.03;;
5945;SDS011;2998;48.206;16.394;2022-07-29T03:57:01;9.50;;;8.00;;
5945;SDS011;2998;48.206;16.394;2022-07-29T03:59:30;15.03;;;8.33;;
5945;SDS011;2998;48.206;16.394;2022-07-29T04:01:59;8.63;;;7.87;;
5945;SDS011;2998;48.206;16.394;2022-07-29T04:04:27;9.67;;;8.87;;
5945;SDS011;2998;48.206;16.394;2022-07-29T04:06:57;14.50;;;8.77;;
5945;SDS011;2998;48.206;16.394;2022-07-29T04:09:25;11.90;;;7.73;;
5945;SDS011;2998;48.206;16.394;2022-07-29T04:11:53;7.90;;;7.20;;
5945;SDS011;2998;48.206;16.394;2022-07-29T04:14:30;8.63;;;7.70;;
5945;SDS011;2998;48.206;16.394;2022-07-29T04:16:58;8.93;;;8.17;;
5945;SDS011;2998;48.206;16.394;2022-07-29T04:19:26;8.83;;;8.10;;
5945;SDS011;2998;48.206;16.394;2022-07-29T04:21:54;8.60;;;7.73;;
5945;SDS011;2998;48.206;16.394;2022-07-29T04:24:24;8.63;;;7.93;;
5945;SDS011;2998;48.206;16.394;2022-07-29T04:26:52;9.33;;;8.30;;
5945;SDS011;2998;48.206;16.394;2022-07-29T04:29:20;9.00;;;8.23;;
5945;SDS011;2998;48.206;16.394;2022-07-29T04:31:48;8.93;;;7.47;;
5945;SDS011;2998;48.206;16.394;2022-07-29T04:34:16;10.17;;;9.27;;
5945;SDS011;2998;48.206;16.394;2022-07-29T04:36:45;9.67;;;8.93;;
5945;SDS011;2998;48.206;16.394;2022-07-29T04:39:14;9.93;;;8.50;;
5945;SDS011;2998;48.206;16.394;2022-07-29T04:41:48;7.80;;;7.00;;
5945;SDS011;2998;48.206;16.394;2022-07-29T04:44:20;8.67;;;7.90;;
5945;SDS011;2998;48.206;16.394;2022-07-29T04:46:54;8.43;;;7.73;;
5945;SDS011;2998;48.206;16.394;2022-07-29T04:49:22;8.87;;;7.73;;
5945;SDS011;2998;48.206;16.394;2022-07-29T04:51:51;7.47;;;6.87;;
5945;SDS011;2998;48.206;16.394;2022-07-29T04:54:20;7.53;;;6.90;;
5945;SDS011;2998;48.206;16.394;2022-07-29T04:56:48;7.00;;;6.40;;
5945;SDS011;2998;48.206;16.394;2022-07-29T04:59:16;7.13;;;6.63;;
5945;SDS011;2998;48.206;16.394;2022-07-29T05:01:44;8.50;;;7.40;;
5945;SDS011;2998;48.206;16.394;2022-07-29T05:04:12;7.33;;;6.80;;
5945;SDS011;2998;48.206;16.394;2022-07-29T05:06:40;7.10;;;6.43;;
5945;SDS011;2998;48.206;16.394;2022-07-29T05:09:08;7.33;;;6.60;;
5945;SDS011;2998;48.206;16.394;2022-07-29T05:11:38;6.80;;;6.20;;
5945;SDS011;2998;48.206;16.394;2022-07-29T05:14:06;7.17;;;6.63;;
5945;SDS011;2998;48.206;16.394;2022-07-29T05:16:34;11.50;;;7.87;;
5945;SDS011;2998;48.206;16.394;2022-07-29T05:19:01;8.30;;;7.57;;
5945;SDS011;2998;48.206;16.394;2022-07-29T05:21:30;8.13;;;7.17;;
5945;SDS011;2998;48.206;16.394;2022-07-29T05:23:57;10.83;;;7.47;;
5945;SDS011;2998;48.206;16.394;2022-07-29T05:26:25;6.80;;;6.30;;
5945;SDS011;2998;48.206;16.394;2022-07-29T05:28:55;7.70;;;6.97;;
5945;SDS011;2998;48.206;16.394;2022-07-29T05:31:23;8.00;;;7.20;;
5945;SDS011;2998;48.206;16.394;2022-07-29T05:33:51;7.27;;;6.57;;
5945;SDS011;2998;48.206;16.394;2022-07-29T05:36:19;8.20;;;7.50;;
5945;SDS011;2998;48.206;16.394;2022-07-29T05:38:47;8.57;;;7.70;;
5945;SDS011;2998;48.206;16.394;2022-07-29T05:41:15;7.40;;;6.80;;
5945;SDS011;2998;48.206;16.394;2022-07-29T05:43:43;8.43;;;7.40;;
5945;SDS011;2998;48.206;16.394;2022-07-29T05:46:12;7.00;;;6.50;;
5945;SDS011;2998;48.206;16.394;2022-07-29T05:48:41;7.10;;;6.50;;
5945;SDS011;2998;48.206;16.394;2022-07-29T05:51:09;7.47;;;6.90;;
5945;SDS011;2998;48.206;16.394;2022-07-29T05:53:38;9.00;;;8.17;;
5945;SDS011;2998;48.206;16.394;2022-07-29T05:56:06;8.70;;;7.80;;
5945;SDS011;2998;48.206;16.394;2022-07-29T05:58:34;8.43;;;7.63;;
5945;SDS011;2998;48.206;16.394;2022-07-29T06:01:03;8.27;;;7.60;;
5945;SDS011;2998;48.206;16.394;2022-07-29T06:03:32;7.27;;;6.67;;
5945;SDS011;2998;48.206;16.394;2022-07-29T06:06:00;9.17;;;8.30;;
5945;SDS011;2998;48.206;16.394;2022-07-29T06:08:28;8.40;;;7.60;;
5945;SDS011;2998;48.206;16.394;2022-07-29T06:10:56;9.20;;;7.70;;
5945;SDS011;2998;48.206;16.394;2022-07-29T06:13:24;8.73;;;8.00;;
5945;SDS011;2998;48.206;16.394;2022-07-29T06:15:52;8.70;;;7.90;;
5945;SDS011;2998;48.206;16.394;2022-07-29T06:18:21;8.47;;;7.87;;
5945;SDS011;2998;48.206;16.394;2022-07-29T06:20:51;8.20;;;7.40;;
5945;SDS011;2998;48.206;16.394;2022-07-29T06:23:20;7.90;;;7.30;;
5945;SDS011;2998;48.206;16.394;2022-07-29T06:25:48;10.90;;;8.23;;
5945;SDS011;2998;48.206;16.394;2022-07-29T06:28:16;9.07;;;8.37;;
5945;SDS011;2998;48.206;16.394;2022-07-29T06:30:44;8.87;;;8.10;;
5945;SDS011;2998;48.206;16.394;2022-07-29T06:33:15;8.93;;;8.13;;
5945;SDS011;2998;48.206;16.394;2022-07-29T06:35:44;11.20;;;8.80;;
5945;SDS011;2998;48.206;16.394;2022-07-29T06:38:21;9.60;;;8.80;;
5945;SDS011;2998;48.206;16.394;2022-07-29T06:41:00;10.97;;;8.70;;
5945;SDS011;2998;48.206;16.394;2022-07-29T06:43:29;10.13;;;9.33;;
5945;SDS011;2998;48.206;16.394;2022-07-29T06:46:00;11.17;;;9.97;;
5945;SDS011;2998;48.206;16.394;2022-07-29T06:48:29;10.77;;;9.70;;
5945;SDS011;2998;48.206;16.394;2022-07-29T06:50:57;11.57;;;10.40;;
5945;SDS011;2998;48.206;16.394;2022-07-29T06:53:26;11.50;;;9.80;;
5945;SDS011;2998;48.206;16.394;2022-07-29T06:55:55;10.40;;;9.50;;
5945;SDS011;2998;48.206;16.394;2022-07-29T06:58:24;11.77;;;10.17;;
5945;SDS011;2998;48.206;16.394;2022-07-29T07:00:52;10.93;;;9.40;;
5945;SDS011;2998;48.206;16.394;2022-07-29T07:03:21;10.40;;;9.60;;
5945;SDS011;2998;48.206;16.394;2022-07-29T07:05:49;10.13;;;9.23;;
5945;SDS011;2998;48.206;16.394;2022-07-29T07:08:17;11.13;;;10.20;;
5945;SDS011;2998;48.206;16.394;2022-07-29T07:10:47;12.00;;;10.90;;
5945;SDS011;2998;48.206;16.394;2022-07-29T07:13:15;11.37;;;10.40;;
5945;SDS011;2998;48.206;16.394;2022-07-29T07:15:43;9.23;;;8.23;;
5945;SDS011;2998;48.206;16.394;2022-07-29T07:18:11;8.93;;;8.13;;
5945;SDS011;2998;48.206;16.394;2022-07-29T07:20:39;9.40;;;8.70;;
5945;SDS011;2998;48.206;16.394;2022-07-29T07:23:07;10.83;;;9.77;;
5945;SDS011;2998;48.206;16.394;2022-07-29T07:25:36;15.40;;;9.90;;
5945;SDS011;2998;48.206;16.394;2022-07-29T07:28:05;16.07;;;9.97;;
5945;SDS011;2998;48.206;16.394;2022-07-29T07:30:33;10.13;;;9.23;;
5945;SDS011;2998;48.206;16.394;2022-07-29T07:33:01;10.87;;;8.77;;
5945;SDS011;2998;48.206;16.394;2022-07-29T07:35:29;10.93;;;9.47;;
5945;SDS011;2998;48.206;16.394;2022-07-29T07:37:57;10.17;;;9.30;;
5945;SDS011;2998;48.206;16.394;2022-07-29T07:40:26;9.17;;;8.47;;
5945;SDS011;2998;48.206;16.394;2022-07-29T07:42:54;10.10;;;9.20;;
5945;SDS011;2998;48.206;16.394;2022-07-29T07:45:23;9.50;;;8.70;;
5945;SDS011;2998;48.206;16.394;2022-07-29T07:47:51;12.10;;;8.70;;
5945;SDS011;2998;48.206;16.394;2022-07-29T07:50:19;11.03;;;10.03;;
5945;SDS011;2998;48.206;16.394;2022-07-29T07:52:48;9.83;;;8.97;;
5945;SDS011;2998;48.206;16.394;2022-07-29T07:55:17;9.10;;;8.40;;
5945;SDS011;2998;48.206;16.394;2022-07-29T07:57:46;8.60;;;7.80;;
5945;SDS011;2998;48.206;16.394;2022-07-29T08:00:15;9.20;;;7.90;;
5945;SDS011;2998;48.206;16.394;2022-07-29T08:02:45;8.57;;;8.00;;
5945;SDS011;2998;48.206;16.394;2022-07-29T08:05:13;7.80;;;7.30;;
5945;SDS011;2998;48.206;16.394;2022-07-29T08:07:44;8.40;;;7.70;;
5945;SDS011;2998;48.206;16.394;2022-07-29T08:10:13;8.50;;;7.80;;
5945;SDS011;2998;48.206;16.394;2022-07-29T08:12:43;7.90;;;7.20;;
5945;SDS011;2998;48.206;16.394;2022-07-29T08:15:11;9.43;;;8.63;;
5945;SDS011;2998;48.206;16.394;2022-07-29T08:17:39;10.10;;;7.60;;
5945;SDS011;2998;48.206;16.394;2022-07-29T08:20:10;9.53;;;8.63;;
5945;SDS011;2998;48.206;16.394;2022-07-29T08:22:38;10.00;;;8.77;;
5945;SDS011;2998;48.206;16.394;2022-07-29T08:25:06;9.80;;;9.00;;
5945;SDS011;2998;48.206;16.394;2022-07-29T08:27:34;8.30;;;7.70;;
5945;SDS011;2998;48.206;16.394;2022-07-29T08:30:10;8.30;;;7.37;;
5945;SDS011;2998;48.206;16.394;2022-07-29T08:32:38;8.77;;;7.87;;
5945;SDS011;2998;48.206;16.394;2022-07-29T08:35:21;9.03;;;8.33;;
5945;SDS011;2998;48.206;16.394;2022-07-29T08:37:50;8.73;;;8.13;;
5945;SDS011;2998;48.206;16.394;2022-07-29T08:40:19;7.50;;;6.90;;
5945;SDS011;2998;48.206;16.394;2022-07-29T08:42:57;8.33;;;7.63;;
5945;SDS011;2998;48.206;16.394;2022-07-29T08:45:26;8.73;;;7.67;;
5945;SDS011;2998;48.206;16.394;2022-07-29T08:47:55;13.30;;;8.57;;
5945;SDS011;2998;48.206;16.394;2022-07-29T08:50:25;12.43;;;7.90;;
5945;SDS011;2998;48.206;16.394;2022-07-29T08:52:53;8.23;;;7.47;;
5945;SDS011;2998;48.206;16.394;2022-07-29T08:55:25;8.80;;;8.00;;
5945;SDS011;2998;48.206;16.394;2022-07-29T08:57:53;10.83;;;7.20;;
5945;SDS011;2998;48.206;16.394;2022-07-29T09:00:22;8.53;;;6.97;;
5945;SDS011;2998;48.206;16.394;2022-07-29T09:02:55;7.20;;;6.60;;
5945;SDS011;2998;48.206;16.394;2022-07-29T09:05:26;6.93;;;6.43;;
5945;SDS011;2998;48.206;16.394;2022-07-29T09:07:55;7.23;;;6.53;;
5945;SDS011;2998;48.206;16.394;2022-07-29T09:10:23;7.33;;;6.67;;
5945;SDS011;2998;48.206;16.394;2022-07-29T09:12:51;7.53;;;6.93;;
5945;SDS011;2998;48.206;16.394;2022-07-29T09:15:19;7.60;;;7.00;;
5945;SDS011;2998;48.206;16.394;2022-07-29T09:17:48;7.80;;;7.10;;
5945;SDS011;2998;48.206;16.394;2022-07-29T09:20:17;8.43;;;7.70;;
5945;SDS011;2998;48.206;16.394;2022-07-29T09:22:47;8.60;;;7.90;;
5945;SDS011;2998;48.206;16.394;2022-07-29T09:25:31;8.50;;;7.80;;
5945;SDS011;2998;48.206;16.394;2022-07-29T09:28:05;8.70;;;7.87;;
5945;SDS011;2998;48.206;16.394;2022-07-29T09:30:34;8.10;;;7.50;;
5945;SDS011;2998;48.206;16.394;2022-07-29T09:33:03;9.37;;;8.57;;
5945;SDS011;2998;48.206;16.394;2022-07-29T09:35:31;7.30;;;6.63;;
5945;SDS011;2998;48.206;16.394;2022-07-29T09:38:10;7.60;;;7.00;;
5945;SDS011;2998;48.206;16.394;2022-07-29T09:40:38;10.77;;;8.80;;
5945;SDS011;2998;48.206;16.394;2022-07-29T09:43:10;7.70;;;7.17;;
5945;SDS011;2998;48.206;16.394;2022-07-29T09:45:39;14.80;;;8.63;;
5945;SDS011;2998;48.206;16.394;2022-07-29T09:48:15;8.70;;;8.00;;
5945;SDS011;2998;48.206;16.394;2022-07-29T09:50:44;8.60;;;7.80;;
5945;SDS011;2998;48.206;16.394;2022-07-29T09:53:30;8.50;;;7.67;;
5945;SDS011;2998;48.206;16.394;2022-07-29T09:55:59;12.63;;;8.90;;
5945;SDS011;2998;48.206;16.394;2022-07-29T09:58:27;9.17;;;8.10;;
5945;SDS011;2998;48.206;16.394;2022-07-29T10:00:56;8.17;;;7.40;;
5945;SDS011;2998;48.206;16.394;2022-07-29T10:03:24;9.73;;;7.83;;
5945;SDS011;2998;48.206;16.394;2022-07-29T10:06:05;10.60;;;7.30;;
5945;SDS011;2998;48.206;16.394;2022-07-29T10:08:36;7.20;;;6.70;;
5945;SDS011;2998;48.206;16.394;2022-07-29T10:11:11;8.40;;;7.57;;
5945;SDS011;2998;48.206;16.394;2022-07-29T10:13:40;9.63;;;7.00;;
5945;SDS011;2998;48.206;16.394;2022-07-29T10:16:09;9.37;;;7.27;;
5945;SDS011;2998;48.206;16.394;2022-07-29T10:18:39;8.63;;;7.07;;
5945;SDS011;2998;48.206;16.394;2022-07-29T10:21:07;9.57;;;7.10;;
5945;SDS011;2998;48.206;16.394;2022-07-29T10:23:49;7.20;;;6.80;;
5945;SDS011;2998;48.206;16.394;2022-07-29T10:26:17;6.30;;;5.90;;
5945;SDS011;2998;48.206;16.394;2022-07-29T10:28:45;6.40;;;6.07;;
5945;SDS011;2998;48.206;16.394;2022-07-29T10:31:15;8.60;;;6.30;;
5945;SDS011;2998;48.206;16.394;2022-07-29T10:33:51;6.27;;;5.87;;
5945;SDS011;2998;48.206;16.394;2022-07-29T10:36:32;5.90;;;5.50;;
5945;SDS011;2998;48.206;16.394;2022-07-29T10:39:13;6.07;;;5.63;;
5945;SDS011;2998;48.206;16.394;2022-07-29T10:41:53;5.67;;;5.10;;
5945;SDS011;2998;48.206;16.394;2022-07-29T10:44:28;4.80;;;4.40;;
5945;SDS011;2998;48.206;16.394;2022-07-29T10:46:57;4.90;;;4.60;;
5945;SDS011;2998;48.206;16.394;2022-07-29T10:49:25;4.20;;;3.73;;
5945;SDS011;2998;48.206;16.394;2022-07-29T10:51:57;4.87;;;4.47;;
5945;SDS011;2998;48.206;16.394;2022-07-29T10:54:41;4.47;;;4.07;;
5945;SDS011;2998;48.206;16.394;2022-07-29T10:57:15;4.37;;;4.07;;
5945;SDS011;2998;48.206;16.394;2022-07-29T11:00:25;3.10;;;2.90;;
5945;SDS011;2998;48.206;16.394;2022-07-29T11:02:54;4.83;;;4.43;;
5945;SDS011;2998;48.206;16.394;2022-07-29T11:05:24;4.80;;;4.00;;
5945;SDS011;2998;48.206;16.394;2022-07-29T11:08:17;3.60;;;3.40;;
5945;SDS011;2998;48.206;16.394;2022-07-29T11:14:00;4.03;;;3.73;;
5945;SDS011;2998;48.206;16.394;2022-07-29T11:19:27;4.00;;;3.63;;
5945;SDS011;2998;48.206;16.394;2022-07-29T11:21:56;3.60;;;3.40;;
5945;SDS011;2998;48.206;16.394;2022-07-29T11:24:26;4.23;;;4.03;;
5945;SDS011;2998;48.206;16.394;2022-07-29T11:27:16;4.27;;;4.03;;
5945;SDS011;2998;48.206;16.394;2022-07-29T11:29:53;3.83;;;3.63;;
5945;SDS011;2998;48.206;16.394;2022-07-29T11:32:22;4.00;;;3.80;;
5945;SDS011;2998;48.206;16.394;2022-07-29T11:43:54;3.90;;;3.70;;
5945;SDS011;2998;48.206;16.394;2022-07-29T11:46:46;3.83;;;3.43;;
5945;SDS011;2998;48.206;16.394;2022-07-29T11:49:18;4.13;;;3.93;;
5945;SDS011;2998;48.206;16.394;2022-07-29T11:52:07;4.97;;;4.57;;
5945;SDS011;2998;48.206;16.394;2022-07-29T11:54:38;5.00;;;4.50;;
5945;SDS011;2998;48.206;16.394;2022-07-29T11:57:23;3.97;;;3.77;;
5945;SDS011;2998;48.206;16.394;2022-07-29T12:00:05;5.10;;;4.60;;
5945;SDS011;2998;48.206;16.394;2022-07-29T12:02:40;4.10;;;3.90;;
5945;SDS011;2998;48.206;16.394;2022-07-29T12:05:14;3.63;;;3.20;;
5945;SDS011;2998;48.206;16.394;2022-07-29T12:08:05;3.70;;;3.50;;
5945;SDS011;2998;48.206;16.394;2022-07-29T12:10:39;4.10;;;3.80;;
5945;SDS011;2998;48.206;16.394;2022-07-29T12:13:08;4.20;;;4.00;;
5945;SDS011;2998;48.206;16.394;2022-07-29T12:15:39;3.80;;;3.50;;
5945;SDS011;2998;48.206;16.394;2022-07-29T12:18:13;4.40;;;4.10;;
5945;SDS011;2998;48.206;16.394;2022-07-29T12:20:43;5.13;;;4.70;;
5945;SDS011;2998;48.206;16.394;2022-07-29T12:23:12;5.73;;;5.20;;
5945;SDS011;2998;48.206;16.394;2022-07-29T12:25:42;5.07;;;4.60;;
5945;SDS011;2998;48.206;16.394;2022-07-29T12:28:15;5.40;;;4.90;;
5945;SDS011;2998;48.206;16.394;2022-07-29T12:30:53;7.63;;;5.20;;
5945;SDS011;2998;48.206;16.394;2022-07-29T12:33:22;5.70;;;5.27;;
5945;SDS011;2998;48.206;16.394;2022-07-29T12:35:51;5.97;;;4.73;;
5945;SDS011;2998;48.206;16.394;2022-07-29T12:38:33;5.93;;;5.43;;
5945;SDS011;2998;48.206;16.394;2022-07-29T12:41:02;6.20;;;5.63;;
5945;SDS011;2998;48.206;16.394;2022-07-29T12:43:30;6.60;;;6.00;;
5945;SDS011;2998;48.206;16.394;2022-07-29T12:46:11;9.23;;;5.70;;
5945;SDS011;2998;48.206;16.394;2022-07-29T12:48:40;6.23;;;5.80;;
5945;SDS011;2998;48.206;16.394;2022-07-29T12:51:09;6.57;;;5.50;;
5945;SDS011;2998;48.206;16.394;2022-07-29T12:53:38;5.40;;;5.10;;
5945;SDS011;2998;48.206;16.394;2022-07-29T12:56:14;6.67;;;6.07;;
5945;SDS011;2998;48.206;16.394;2022-07-29T12:59:10;5.50;;;5.10;;
5945;SDS011;2998;48.206;16.394;2022-07-29T13:01:41;5.13;;;4.83;;
5945;SDS011;2998;48.206;16.394;2022-07-29T13:04:09;6.73;;;5.20;;
5945;SDS011;2998;48.206;16.394;2022-07-29T13:06:38;5.70;;;5.23;;
5945;SDS011;2998;48.206;16.394;2022-07-29T13:09:08;6.40;;;5.33;;
5945;SDS011;2998;48.206;16.394;2022-07-29T13:11:38;6.37;;;5.73;;
5945;SDS011;2998;48.206;16.394;2022-07-29T13:14:14;6.93;;;5.30;;
5945;SDS011;2998;48.206;16.394;2022-07-29T13:17:03;10.97;;;5.10;;
5945;SDS011;2998;48.206;16.394;2022-07-29T13:19:33;5.43;;;5.00;;
5945;SDS011;2998;48.206;16.394;2022-07-29T13:22:02;5.37;;;4.83;;
5945;SDS011;2998;48.206;16.394;2022-07-29T13:24:31;5.67;;;5.23;;
5945;SDS011;2998;48.206;16.394;2022-07-29T13:26:59;5.60;;;5.10;;
5945;SDS011;2998;48.206;16.394;2022-07-29T13:29:31;5.93;;;5.47;;
5945;SDS011;2998;48.206;16.394;2022-07-29T13:31:59;6.67;;;5.07;;
5945;SDS011;2998;48.206;16.394;2022-07-29T13:34:28;5.03;;;4.70;;
5945;SDS011;2998;48.206;16.394;2022-07-29T13:36:57;5.07;;;4.57;;
5945;SDS011;2998;48.206;16.394;2022-07-29T13:39:25;5.30;;;4.90;;
5945;SDS011;2998;48.206;16.394;2022-07-29T13:41:53;4.23;;;3.93;;
5945;SDS011;2998;48.206;16.394;2022-07-29T13:44:22;4.50;;;4.20;;
5945;SDS011;2998;48.206;16.394;2022-07-29T13:46:50;5.13;;;4.63;;
5945;SDS011;2998;48.206;16.394;2022-07-29T13:49:18;4.90;;;4.60;;
5945;SDS011;2998;48.206;16.394;2022-07-29T13:51:48;6.00;;;5.50;;
5945;SDS011;2998;48.206;16.394;2022-07-29T13:54:16;5.50;;;5.00;;
5945;SDS011;2998;48.206;16.394;2022-07-29T13:56:44;5.60;;;5.10;;
5945;SDS011;2998;48.206;16.394;2022-07-29T13:59:12;4.43;;;4.10;;
5945;SDS011;2998;48.206;16.394;2022-07-29T14:01:40;5.87;;;5.27;;
5945;SDS011;2998;48.206;16.394;2022-07-29T14:04:10;5.03;;;4.70;;
5945;SDS011;2998;48.206;16.394;2022-07-29T14:06:39;8.33;;;5.60;;
5945;SDS011;2998;48.206;16.394;2022-07-29T14:09:08;5.00;;;4.60;;
5945;SDS011;2998;48.206;16.394;2022-07-29T14:11:36;7.53;;;6.07;;
5945;SDS011;2998;48.206;16.394;2022-07-29T14:14:05;6.20;;;5.40;;
5945;SDS011;2998;48.206;16.394;2022-07-29T14:16:33;5.43;;;4.93;;
5945;SDS011;2998;48.206;16.394;2022-07-29T14:19:07;15.10;;;5.70;;
5945;SDS011;2998;48.206;16.394;2022-07-29T14:21:36;4.63;;;4.23;;
5945;SDS011;2998;48.206;16.394;2022-07-29T14:24:06;4.80;;;4.30;;
5945;SDS011;2998;48.206;16.394;2022-07-29T14:26:49;4.70;;;4.40;;
5945;SDS011;2998;48.206;16.394;2022-07-29T14:29:17;4.40;;;4.20;;
5945;SDS011;2998;48.206;16.394;2022-07-29T14:31:45;3.83;;;3.37;;
5945;SDS011;2998;48.206;16.394;2022-07-29T14:34:13;6.30;;;4.23;;
5945;SDS011;2998;48.206;16.394;2022-07-29T14:36:42;4.17;;;3.77;;
5945;SDS011;2998;48.206;16.394;2022-07-29T14:39:10;5.50;;;4.30;;
5945;SDS011;2998;48.206;16.394;2022-07-29T14:41:38;4.07;;;3.87;;
5945;SDS011;2998;48.206;16.394;2022-07-29T14:44:07;4.17;;;3.97;;
5945;SDS011;2998;48.206;16.394;2022-07-29T14:46:35;4.73;;;4.27;;
5945;SDS011;2998;48.206;16.394;2022-07-29T14:49:03;14.60;;;4.80;;
5945;SDS011;2998;48.206;16.394;2022-07-29T14:51:35;6.07;;;4.50;;
5945;SDS011;2998;48.206;16.394;2022-07-29T14:54:05;4.20;;;3.90;;
5945;SDS011;2998;48.206;16.394;2022-07-29T14:56:33;4.37;;;4.00;;
5945;SDS011;2998;48.206;16.394;2022-07-29T14:59:03;5.10;;;4.27;;
5945;SDS011;2998;48.206;16.394;2022-07-29T15:01:33;4.87;;;4.37;;
5945;SDS011;2998;48.206;16.394;2022-07-29T15:04:03;4.20;;;4.00;;
5945;SDS011;2998;48.206;16.394;2022-07-29T15:06:31;6.93;;;4.23;;
5945;SDS011;2998;48.206;16.394;2022-07-29T15:09:00;4.33;;;4.10;;
5945;SDS011;2998;48.206;16.394;2022-07-29T15:11:28;4.60;;;4.23;;
5945;SDS011;2998;48.206;16.394;2022-07-29T15:14:03;5.10;;;4.70;;
5945;SDS011;2998;48.206;16.394;2022-07-29T15:16:31;4.40;;;4.10;;
5945;SDS011;2998;48.206;16.394;2022-07-29T15:19:00;4.20;;;3.90;;
5945;SDS011;2998;48.206;16.394;2022-07-29T15:21:28;9.57;;;4.10;;
5945;SDS011;2998;48.206;16.394;2022-07-29T15:23:56;5.00;;;4.10;;
5945;SDS011;2998;48.206;16.394;2022-07-29T15:26:24;3.87;;;3.57;;
5945;SDS011;2998;48.206;16.394;2022-07-29T15:28:52;4.10;;;3.90;;
5945;SDS011;2998;48.206;16.394;2022-07-29T15:31:21;3.87;;;3.70;;
5945;SDS011;2998;48.206;16.394;2022-07-29T15:33:49;4.73;;;4.30;;
5945;SDS011;2998;48.206;16.394;2022-07-29T15:36:25;4.47;;;4.10;;
5945;SDS011;2998;48.206;16.394;2022-07-29T15:39:13;3.97;;;3.77;;